Mc Ghee Tyson Airport
KTYS : rendu visible

Aérodrome :











RETROUVEZ-NOUS SUR...

 
LOGIN :

S'inscrire | Disclaimer

   EN    FR    IT 

 









Légende :    VFR   VFR Marginal   IFR   IFR Intensif   IFR Très Intensif
Visi : 
Plafond : 
>= 8 km
>= 3000ft
5 à 8 km
1000 à 3000 ft
1500m à 5 km
500 à 1000 ft
800 à 1500m
200 à 500 ft
< 800m
< 200 ft
Symboles :   Orages  Brouillard  Fortes neiges  Fortes précipitations  Vent > 20 kt






- Altitude de l'aérodrome : 981 ft
- Code IATA : TYS


KTYS - Mc Ghee Tyson

DERNIER METAR :
  • 191453Z 22003KT 10SM BKN085 08/03 A2988 RMK AO2 SLP118 T00830028 51007

METARs EXPIRÉS :
  • 191353Z 18003KT 10SM FEW100 SCT150 SCT250 06/02 A2987 RMK AO2 SLP114 T00610022
  • 191253Z 00000KT 9SM SCT100 BKN150 BKN250 04/02 A2987 RMK AO2 SLP115 T00440017

TAF KTYS
Valide du 19 à 12h jusqu'au 20 à 12h UTC


191120Z 1912/2012 VRB03KT P6SM BKN100 OVC150
FM191900 23007KT P6SM BKN045
FM200100 25005KT P6SM SCT025



MET'MAP, la Météo Aéronautique d'un coup d'oeil ! - Copyright ORBIFLY Décembre 2007 - Disclaimer

ORBIFLY MET'MAP TEAM :

Programmation & Développement : Alexandra Zaïnal
Conception & Développement : Baudouin d'Aumeries
Co-Programmation & Développement : Marc-Olivier Méhu
Soutien technique & logistique : Manuel Goepfert

Contact : metmap@orbifly.com




SOURCES & CREDITS :

   NOAA       Earth
Advisory